Time,TemperatureF,DewpointF,PressureIn,WindDirection,WindDirectionDegrees,WindSpeedMPH,WindSpeedGustMPH,Humidity,HourlyPrecipIn,Conditions,Clouds,dailyrainin,SolarRadiationWatts/m^2,SoftwareType,DateUTC
2013-02-11 00:01:00,31.0,30.0,-100.00,SSW,200,0.0,0.0,97,0.00,,,0.00,0.000000,,2013-02-11 05:01:00,
2013-02-11 00:22:00,31.0,30.0,-100.00,SSW,200,0.0,0.0,97,0.00,,,0.00,0.000000,,2013-02-11 05:22:00,
2013-02-11 00:32:00,31.0,30.0,-100.00,SSW,200,0.0,0.0,97,0.00,,,0.00,0.000000,,2013-02-11 05:32:00,
2013-02-11 00:42:00,31.0,30.0,-100.00,SSW,200,0.0,0.0,97,0.00,,,0.00,0.000000,,2013-02-11 05:42:00,
2013-02-11 00:53:00,31.0,30.0,-100.00,SSW,200,0.0,0.0,97,0.00,,,0.00,0.000000,,2013-02-11 05:53:00,
2013-02-11 01:01:00,31.0,30.0,-100.00,SSW,198,0.0,0.0,97,0.00,,,0.00,0.000000,,2013-02-11 06:01:00,
2013-02-11 01:32:00,31.0,30.0,-100.00,SSW,198,0.0,0.0,97,0.00,,,0.00,0.000000,,2013-02-11 06:32:00,
2013-02-11 01:42:00,31.0,30.0,-100.00,SSW,198,0.0,0.0,97,0.00,,,0.00,0.000000,,2013-02-11 06:42:00,
2013-02-11 01:52:00,31.0,30.0,-100.00,SSW,198,0.0,0.0,97,0.00,,,0.00,0.000000,,2013-02-11 06:52:00,
2013-02-11 02:01:00,32.0,32.0,-100.00,SSW,199,0.0,0.0,98,0.00,,,0.00,0.000000,,2013-02-11 07:01:00,
2013-02-11 02:32:00,32.0,32.0,-100.00,SSW,199,0.0,0.0,98,0.00,,,0.00,0.000000,,2013-02-11 07:32:00,
2013-02-11 02:42:00,32.0,32.0,-100.00,SSW,199,0.0,0.0,98,0.00,,,0.00,0.000000,,2013-02-11 07:42:00,
2013-02-11 02:52:00,32.0,32.0,-100.00,SSW,199,0.0,0.0,98,0.00,,,0.00,0.000000,,2013-02-11 07:52:00,
2013-02-11 03:01:00,33.0,33.0,-100.00,SSW,207,0.0,0.0,99,0.00,,,0.00,0.000000,,2013-02-11 08:01:00,
2013-02-11 03:32:00,33.0,33.0,-100.00,SSW,207,0.0,0.0,99,0.00,,,0.00,0.000000,,2013-02-11 08:32:00,
2013-02-11 03:42:00,33.0,33.0,-100.00,SSW,207,0.0,0.0,99,0.00,,,0.00,0.000000,,2013-02-11 08:42:00,
2013-02-11 03:52:00,33.0,33.0,-100.00,SSW,207,0.0,0.0,99,0.00,,,0.00,0.000000,,2013-02-11 08:52:00,
2013-02-11 04:01:00,33.0,33.0,-100.00,SE,124,0.0,0.0,100,0.01,,,0.01,0.000000,,2013-02-11 09:01:00,
2013-02-11 04:32:00,33.0,33.0,-100.00,SE,124,0.0,0.0,100,0.01,,,0.01,0.000000,,2013-02-11 09:32:00,
2013-02-11 04:42:00,33.0,33.0,-100.00,SE,124,0.0,0.0,100,0.01,,,0.01,0.000000,,2013-02-11 09:42:00,
2013-02-11 04:52:00,33.0,33.0,-100.00,SE,124,0.0,0.0,100,0.01,,,0.01,0.000000,,2013-02-11 09:52:00,
2013-02-11 05:01:00,33.0,33.0,-100.00,ENE,59,0.0,0.0,100,0.01,,,0.02,0.000000,,2013-02-11 10:01:00,
2013-02-11 05:32:00,33.0,33.0,-100.00,ENE,59,0.0,0.0,100,0.01,,,0.02,0.000000,,2013-02-11 10:32:00,
2013-02-11 05:42:00,33.0,33.0,-100.00,ENE,59,0.0,0.0,100,0.01,,,0.02,0.000000,,2013-02-11 10:42:00,
2013-02-11 05:52:00,33.0,33.0,-100.00,ENE,59,0.0,0.0,100,0.01,,,0.02,0.000000,,2013-02-11 10:52:00,
2013-02-11 06:01:00,35.0,35.0,-100.00,SSW,198,0.0,0.0,100,0.02,,,0.04,0.000000,,2013-02-11 11:01:00,
2013-02-11 06:32:00,35.0,35.0,-100.00,SSW,198,0.0,0.0,100,0.02,,,0.04,0.000000,,2013-02-11 11:32:00,
2013-02-11 06:42:00,35.0,35.0,-100.00,SSW,198,0.0,0.0,100,0.02,,,0.04,0.000000,,2013-02-11 11:42:00,
2013-02-11 06:52:00,35.0,35.0,-100.00,SSW,198,0.0,0.0,100,0.02,,,0.04,0.000000,,2013-02-11 11:52:00,
2013-02-11 07:01:00,35.0,35.0,-100.00,SSW,197,0.0,0.0,100,0.00,,,-99.99,0.000000,,2013-02-11 12:01:00,
2013-02-11 07:32:00,35.0,35.0,-100.00,SSW,197,0.0,0.0,100,0.00,,,-99.99,0.000000,,2013-02-11 12:32:00,
2013-02-11 07:42:00,35.0,35.0,-100.00,SSW,197,0.0,0.0,100,0.00,,,-99.99,0.000000,,2013-02-11 12:42:00,
2013-02-11 07:52:00,35.0,35.0,-100.00,SSW,197,0.0,0.0,100,0.00,,,-99.99,0.000000,,2013-02-11 12:52:00,
2013-02-11 08:01:00,38.0,38.0,-100.00,SW,215,0.0,0.0,100,0.00,,,-99.99,4.000000,,2013-02-11 13:01:00,
2013-02-11 08:33:00,38.0,38.0,-100.00,SW,215,0.0,0.0,100,0.00,,,-99.99,4.000000,,2013-02-11 13:33:00,
2013-02-11 08:42:00,38.0,38.0,-100.00,SW,215,0.0,0.0,100,0.00,,,-99.99,4.000000,,2013-02-11 13:42:00,
2013-02-11 08:52:00,38.0,38.0,-100.00,SW,215,0.0,0.0,100,0.00,,,-99.99,4.000000,,2013-02-11 13:52:00,
2013-02-11 09:01:00,39.0,39.0,-100.00,SSW,209,0.0,0.0,100,0.00,,,-99.99,27.000000,,2013-02-11 14:01:00,
2013-02-11 09:33:00,39.0,39.0,-100.00,SSW,209,0.0,0.0,100,0.00,,,-99.99,27.000000,,2013-02-11 14:33:00,
2013-02-11 09:42:00,39.0,39.0,-100.00,SSW,209,0.0,0.0,100,0.00,,,-99.99,27.000000,,2013-02-11 14:42:00,
2013-02-11 09:53:00,39.0,39.0,-100.00,SSW,209,0.0,0.0,100,0.00,,,-99.99,27.000000,,2013-02-11 14:53:00,
2013-02-11 10:01:00,42.0,42.0,-100.00,SSW,211,0.0,0.0,100,0.02,,,0.06,79.000000,,2013-02-11 15:01:00,
2013-02-11 10:32:00,42.0,42.0,-100.00,SSW,211,0.0,0.0,100,0.02,,,0.06,79.000000,,2013-02-11 15:32:00,
2013-02-11 10:42:00,42.0,42.0,-100.00,SSW,211,0.0,0.0,100,0.02,,,0.06,79.000000,,2013-02-11 15:42:00,
2013-02-11 10:52:00,42.0,42.0,-100.00,SSW,211,0.0,0.0,100,0.02,,,0.06,79.000000,,2013-02-11 15:52:00,
2013-02-11 11:01:00,44.0,44.0,-100.00,SSW,211,0.0,0.0,100,0.00,,,0.06,142.000000,,2013-02-11 16:01:00,
2013-02-11 11:32:00,44.0,44.0,-100.00,SSW,211,0.0,0.0,100,0.00,,,0.06,142.000000,,2013-02-11 16:32:00,
2013-02-11 11:42:00,44.0,44.0,-100.00,SSW,211,0.0,0.0,100,0.00,,,0.06,142.000000,,2013-02-11 16:42:00,
2013-02-11 11:53:00,44.0,44.0,-100.00,SSW,211,0.0,0.0,100,0.00,,,0.06,142.000000,,2013-02-11 16:53:00,
2013-02-11 12:01:00,47.0,47.0,-100.00,SW,215,0.0,0.0,100,0.00,,,0.06,256.000000,,2013-02-11 17:01:00,
2013-02-11 12:32:00,47.0,47.0,-100.00,SW,215,0.0,0.0,100,0.00,,,0.06,256.000000,,2013-02-11 17:32:00,
2013-02-11 12:42:00,47.0,47.0,-100.00,SW,215,0.0,0.0,100,0.00,,,0.06,256.000000,,2013-02-11 17:42:00,
2013-02-11 12:53:00,47.0,47.0,-100.00,SW,215,0.0,0.0,100,0.00,,,0.06,256.000000,,2013-02-11 17:53:00,
2013-02-11 13:01:00,50.0,48.0,-100.00,SSW,212,0.0,0.0,92,0.00,,,0.06,432.000000,,2013-02-11 18:01:00,
2013-02-11 13:22:00,50.0,48.0,-100.00,SSW,212,0.0,0.0,92,0.00,,,0.06,432.000000,,2013-02-11 18:22:00,
2013-02-11 13:32:00,50.0,48.0,-100.00,SSW,212,0.0,0.0,92,0.00,,,0.06,432.000000,,2013-02-11 18:32:00,
2013-02-11 13:42:00,50.0,48.0,-100.00,SSW,212,0.0,0.0,92,0.00,,,0.06,432.000000,,2013-02-11 18:42:00,
2013-02-11 13:54:00,50.0,48.0,-100.00,SSW,212,0.0,0.0,92,0.00,,,0.06,432.000000,,2013-02-11 18:54:00,
2013-02-11 14:01:00,52.0,46.0,-100.00,SSW,211,0.0,0.0,80,0.00,,,0.06,478.000000,,2013-02-11 19:01:00,
2013-02-11 14:22:00,52.0,46.0,-100.00,SSW,211,0.0,0.0,80,0.00,,,0.06,478.000000,,2013-02-11 19:22:00,
2013-02-11 14:32:00,52.0,46.0,-100.00,SSW,211,0.0,0.0,80,0.00,,,0.06,478.000000,,2013-02-11 19:32:00,
2013-02-11 14:42:00,52.0,46.0,-100.00,SSW,211,0.0,0.0,80,0.00,,,0.06,478.000000,,2013-02-11 19:42:00,
2013-02-11 14:52:00,52.0,46.0,-100.00,SSW,211,0.0,0.0,80,0.00,,,0.06,478.000000,,2013-02-11 19:52:00,
2013-02-11 15:01:00,54.0,37.0,-100.00,WSW,240,0.0,0.0,53,0.01,,,0.07,387.000000,,2013-02-11 20:01:00,
2013-02-11 15:32:00,54.0,37.0,-100.00,WSW,240,0.0,0.0,53,0.01,,,0.07,387.000000,,2013-02-11 20:32:00,
2013-02-11 15:42:00,54.0,37.0,-100.00,WSW,240,0.0,0.0,53,0.01,,,0.07,387.000000,,2013-02-11 20:42:00,
2013-02-11 15:52:00,54.0,37.0,-100.00,WSW,240,0.0,0.0,53,0.01,,,0.07,387.000000,,2013-02-11 20:52:00,
2013-02-11 16:01:00,53.0,27.0,-100.00,SW,236,0.0,0.0,36,0.00,,,0.07,241.000000,,2013-02-11 21:01:00,
2013-02-11 16:32:00,53.0,27.0,-100.00,SW,236,0.0,0.0,36,0.00,,,0.07,241.000000,,2013-02-11 21:32:00,
2013-02-11 16:42:00,53.0,27.0,-100.00,SW,236,0.0,0.0,36,0.00,,,0.07,241.000000,,2013-02-11 21:42:00,
2013-02-11 16:52:00,53.0,27.0,-100.00,SW,236,0.0,0.0,36,0.00,,,0.07,241.000000,,2013-02-11 21:52:00,
2013-02-11 17:32:00,52.0,19.0,-100.00,West,260,0.0,0.0,27,0.00,,,0.07,119.000000,,2013-02-11 22:32:00,
2013-02-11 18:01:00,49.0,17.0,-100.00,WSW,240,0.0,0.0,28,0.00,,,0.07,28.000000,,2013-02-11 23:01:00,
2013-02-11 18:22:00,49.0,17.0,-100.00,WSW,240,0.0,0.0,28,0.00,,,0.07,28.000000,,2013-02-11 23:22:00,
2013-02-11 18:32:00,49.0,17.0,-100.00,WSW,240,0.0,0.0,28,0.00,,,0.07,28.000000,,2013-02-11 23:32:00,
2013-02-11 18:42:00,49.0,17.0,-100.00,WSW,240,0.0,0.0,28,0.00,,,0.07,28.000000,,2013-02-11 23:42:00,
2013-02-11 18:52:00,49.0,17.0,-100.00,WSW,240,0.0,0.0,28,0.00,,,0.07,28.000000,,2013-02-11 23:52:00,
2013-02-11 19:01:00,47.0,20.0,-100.00,WSW,244,0.0,0.0,34,0.00,,,0.07,1.000000,,2013-02-12 00:01:00,
2013-02-11 19:32:00,47.0,20.0,-100.00,WSW,244,0.0,0.0,34,0.00,,,0.07,1.000000,,2013-02-12 00:32:00,
2013-02-11 19:42:00,47.0,20.0,-100.00,WSW,244,0.0,0.0,34,0.00,,,0.07,1.000000,,2013-02-12 00:42:00,
2013-02-11 19:52:00,47.0,20.0,-100.00,WSW,244,0.0,0.0,34,0.00,,,0.07,1.000000,,2013-02-12 00:52:00,
2013-02-11 20:01:00,46.0,14.0,-100.00,WSW,244,0.0,0.0,27,0.00,,,0.07,0.000000,,2013-02-12 01:01:00,
2013-02-11 20:32:00,46.0,14.0,-100.00,WSW,244,0.0,0.0,27,0.00,,,0.07,0.000000,,2013-02-12 01:32:00,
2013-02-11 20:42:00,46.0,14.0,-100.00,WSW,244,0.0,0.0,27,0.00,,,0.07,0.000000,,2013-02-12 01:42:00,
2013-02-11 20:52:00,46.0,14.0,-100.00,WSW,244,0.0,0.0,27,0.00,,,0.07,0.000000,,2013-02-12 01:52:00,
2013-02-11 21:01:00,44.0,13.0,-100.00,WSW,254,0.0,0.0,28,0.00,,,0.07,0.000000,,2013-02-12 02:01:00,
2013-02-11 21:22:00,44.0,13.0,-100.00,WSW,254,0.0,0.0,28,0.00,,,0.07,0.000000,,2013-02-12 02:22:00,
2013-02-11 21:32:00,44.0,13.0,-100.00,WSW,254,0.0,0.0,28,0.00,,,0.07,0.000000,,2013-02-12 02:32:00,
2013-02-11 21:42:00,44.0,13.0,-100.00,WSW,254,0.0,0.0,28,0.00,,,0.07,0.000000,,2013-02-12 02:42:00,
2013-02-11 21:53:00,44.0,13.0,-100.00,WSW,254,0.0,0.0,28,0.00,,,0.07,0.000000,,2013-02-12 02:53:00,
2013-02-11 22:01:00,41.0,16.0,-100.00,West,278,0.0,0.0,36,0.00,,,0.07,0.000000,,2013-02-12 03:01:00,
2013-02-11 22:32:00,41.0,16.0,-100.00,West,278,0.0,0.0,36,0.00,,,0.07,0.000000,,2013-02-12 03:32:00,
2013-02-11 22:42:00,41.0,16.0,-100.00,West,278,0.0,0.0,36,0.00,,,0.07,0.000000,,2013-02-12 03:42:00,
2013-02-11 22:52:00,41.0,16.0,-100.00,West,278,0.0,0.0,36,0.00,,,0.07,0.000000,,2013-02-12 03:52:00,
2013-02-11 23:01:00,39.0,19.0,-100.00,NNW,332,0.0,0.0,44,0.00,,,0.07,0.000000,,2013-02-12 04:01:00,
2013-02-11 23:21:00,39.0,19.0,-100.00,NNW,332,0.0,0.0,44,0.00,,,0.07,0.000000,,2013-02-12 04:21:00,
2013-02-11 23:32:00,39.0,19.0,-100.00,NNW,332,0.0,0.0,44,0.00,,,0.07,0.000000,,2013-02-12 04:32:00,
2013-02-11 23:42:00,39.0,19.0,-100.00,NNW,332,0.0,0.0,44,0.00,,,0.07,0.000000,,2013-02-12 04:42:00,
2013-02-11 23:52:00,39.0,19.0,-100.00,NNW,332,0.0,0.0,44,0.00,,,0.07,0.000000,,2013-02-12 04:52:00,